Kennebunk, ME

6:53 AM EST on February 24, 2017 (GMT -0500)
Kennebunk | | Change Station

Elev 65 ft 43.39 °N, 70.54 °W | Updated 1 minute ago

Mostly Cloudy
Mostly Cloudy
39.2 °F
Feels Like 39 °F
N
0.0
Wind Variable Wind from North
Gusts 1.2 mph

Today
High -- | Low -- °F
--% Chance of Precip.
Yesterday
High -- | Low -- °F
Precip. -- in
Pressure 29.90 in
Visibility 0.8 miles
Clouds Mostly Cloudy 11000 ft
Windchill 39 °F
Dew Point 34 °F
Humidity 82%
Rainfall 0.08 in
Snow Depth Not available.
6:26 AM 5:25 PM
Waning Crescent, 5% visible
SPECI KSFM 241148Z AUTO 14003KT 3/4SM BR BKN110 03/03 A2990 RMK AO2 RVRNO
Pressure 29.90 in
Visibility 0.8 miles
Clouds Mostly Cloudy 11000 ft
Windchill 39 °F
Dew Point 34 °F
Humidity 82%
Rainfall 0.08 in
Snow Depth Not available.
6:26 AM 5:25 PM
Waning Crescent, 5% visible
SPECI KSFM 241148Z AUTO 14003KT 3/4SM BR BKN110 03/03 A2990 RMK AO2 RVRNO

Get Your Daily Forecast Email!

Thanks for signing up!

Be on the lookout for a verification email in your inbox.

You'll start receiving the daily forecast at 8 AM.

×

10-Day Weather Forecast

Almanac

Astronomy

Feb. 24, 2017 Rise Set
Actual Time
Civil Twilight
Nautical Twilight
Astronomical Twilight
Moon
Length of Visible Light
Length of Day
Tomorrow will be .
, % of the Moon is Illuminated

Today's Extremes

State Highs State Lows

Community

WunderPhotos

Upload Photos

1,962,540 photos uploaded!

WunderBlog® & News

Nearby

Air Quality

  Air Quality AQ Index Pollutant
Not available.

Snow Depth

Station Depth Elevation

Earthquake Activity

City Distance Mag. Time & Date
Minimum magnitude displayed is 2.5.

Coastal Water Temperatures

Place Temperature

Stations

Nearby Weather Stations

Station Location Temp. Windchill Dew Point Humidity Wind Precip. Elev Updated Type
                   

Watches & Warnings

There are currently no watches in effect.